Time;durP1;ratioP1;P1;durP2;ratioP2;P2;SDS_P1;SDS_P2;PMS_P1;PMS_P2;Temp;Humidity;BMP_temperature;BMP_pressure;BME280_temperature;BME280_humidity;BME280_pressure;Samples;Min_cycle;Max_cycle;Signal;HPM_P1;HPM_P2
2022/12/10 00:02:25;;;;;;;15.73;6.60;;;;;;;7.03;73.58;94315.47;4955681;28;20022;-82
2022/12/10 00:04:50;;;;;;;17.73;7.35;;;;;;;7.06;75.96;94311.91;4953331;28;20019;-79
2022/12/10 00:07:16;;;;;;;15.68;6.53;;;;;;;7.10;71.18;94315.28;4976252;28;20158;-79
2022/12/10 00:09:41;;;;;;;20.15;8.35;;;;;;;6.99;76.16;94312.81;4989676;28;20025;-79
2022/12/10 00:12:06;;;;;;;19.08;9.45;;;;;;;7.22;72.59;94320.06;4977628;28;20030;-80
2022/12/10 00:14:32;;;;;;;28.55;11.25;;;;;;;6.95;76.42;94328.56;4974998;28;20085;-81
2022/12/10 00:16:57;;;;;;;16.35;9.00;;;;;;;7.39;75.29;94331.72;4985927;28;20030;-80
2022/12/10 00:19:23;;;;;;;19.23;8.38;;;;;;;6.96;76.35;94335.56;4988847;28;20023;-80
2022/12/10 00:21:48;;;;;;;17.27;8.75;;;;;;;7.32;81.22;94315.53;4968084;28;20030;-80
2022/12/10 00:24:14;;;;;;;13.43;7.30;;;;;;;6.93;75.35;94314.53;4978566;28;20027;-80
2022/12/10 00:26:39;;;;;;;16.23;8.75;;;;;;;7.09;75.83;94314.53;4987914;28;20105;-81
2022/12/10 00:29:07;;;;;;;13.00;6.28;;;;;;;7.03;73.66;94310.00;4977794;28;20062;-80
2022/12/10 00:31:34;;;;;;;13.13;6.55;;;;;;;7.16;75.30;94306.13;4984492;28;20023;-80
2022/12/10 00:34:01;;;;;;;12.00;6.20;;;;;;;7.15;71.45;94318.28;4967560;28;20027;-80
2022/12/10 00:36:29;;;;;;;12.88;7.00;;;;;;;7.13;75.71;94317.19;4995098;28;20113;-81
2022/12/10 00:38:54;;;;;;;10.45;5.75;;;;;;;7.36;70.36;94319.69;4971006;28;20026;-79
2022/12/10 00:41:20;;;;;;;15.10;8.45;;;;;;;7.15;75.96;94318.28;5008781;28;20045;-80
2022/12/10 00:43:46;;;;;;;19.27;9.98;;;;;;;7.46;73.35;94315.16;4974127;28;20030;-80
2022/12/10 00:46:12;;;;;;;18.63;9.70;;;;;;;7.05;76.64;94315.81;4950849;28;20519;-80
2022/12/10 00:48:38;;;;;;;19.05;7.65;;;;;;;7.56;79.84;94338.69;4984669;28;20033;-81
2022/12/10 00:51:06;;;;;;;14.40;6.50;;;;;;;7.11;75.31;94323.09;4980679;28;20114;-79
2022/12/10 00:53:32;;;;;;;11.95;6.57;;;;;;;7.25;75.80;94321.94;4960629;28;20129;-78
2022/12/10 00:55:57;;;;;;;14.55;5.47;;;;;;;7.10;74.37;94315.28;4987131;28;20466;-79
2022/12/10 00:58:23;;;;;;;16.77;7.15;;;;;;;7.19;75.91;94320.94;4987841;28;20027;-80
2022/12/10 01:00:49;;;;;;;15.82;4.97;;;;;;;7.21;71.31;94315.03;4971923;28;20034;-79
2022/12/10 01:03:14;;;;;;;19.00;6.90;;;;;;;7.18;75.52;94325.63;4986378;28;20037;-80
2022/12/10 01:05:40;;;;;;;10.75;5.25;;;;;;;7.35;71.39;94323.63;4968249;28;20034;-79
2022/12/10 01:08:05;;;;;;;13.77;5.80;;;;;;;7.15;76.29;94315.53;4951507;28;20092;-79
2022/12/10 01:10:30;;;;;;;14.95;5.63;;;;;;;7.54;73.15;94321.19;4984718;28;20036;-78
2022/12/10 01:12:56;;;;;;;13.02;6.80;;;;;;;7.16;76.31;94314.34;5001422;28;20026;-79
2022/12/10 01:15:21;;;;;;;15.50;7.53;;;;;;;7.65;80.17;94319.69;5001644;28;20034;-79
2022/12/10 01:17:47;;;;;;;15.23;6.45;;;;;;;7.17;75.76;94312.41;4985418;28;20030;-79
2022/12/10 01:20:12;;;;;;;14.48;6.55;;;;;;;7.34;76.04;94308.44;4988353;28;20516;-79
2022/12/10 01:22:38;;;;;;;10.98;5.53;;;;;;;7.19;74.22;94304.53;4999282;28;20030;-79
2022/12/10 01:25:04;;;;;;;12.45;7.70;;;;;;;7.29;76.10;94316.41;4980169;28;20088;-79
2022/12/10 01:27:29;;;;;;;9.30;5.93;;;;;;;7.27;72.77;94305.09;4989235;28;20509;-79
2022/12/10 01:29:54;;;;;;;14.57;7.25;;;;;;;7.30;76.14;94294.09;4976834;28;20030;-79
2022/12/10 01:32:20;;;;;;;10.60;6.43;;;;;;;7.40;73.27;94298.50;4969361;28;20057;-79
2022/12/10 01:34:45;;;;;;;16.75;7.22;;;;;;;7.25;76.94;94297.34;4981382;28;20026;-78
2022/12/10 01:37:11;;;;;;;16.45;7.57;;;;;;;7.57;74.10;94291.03;5001622;28;20026;-79
2022/12/10 01:39:37;;;;;;;17.23;7.03;;;;;;;7.15;76.70;94284.72;4985222;28;20030;-79
2022/12/10 01:42:02;;;;;;;13.52;6.30;;;;;;;7.61;80.83;94299.09;4982397;28;20476;-79
2022/12/10 01:44:28;;;;;;;19.42;7.82;;;;;;;7.21;76.14;94304.09;4952725;28;20030;-79
2022/12/10 01:46:55;;;;;;;19.45;9.23;;;;;;;7.36;76.42;94314.22;4986349;28;20468;-79
2022/12/10 01:49:22;;;;;;;14.50;6.50;;;;;;;7.24;74.66;94314.94;4991592;28;20484;-79
2022/12/10 01:51:55;;;;;;;16.42;7.28;;;;;;;7.37;76.08;94306.78;4965570;28;20439;-79
2022/12/10 01:54:27;;;;;;;13.90;7.30;;;;;;;7.34;72.91;94296.69;5001474;28;20081;-79
2022/12/10 01:57:06;;;;;;;16.55;8.52;;;;;;;7.33;76.49;94293.22;4990942;28;20041;-79
2022/12/10 01:59:31;;;;;;;17.30;8.38;;;;;;;7.30;72.95;94291.34;4967641;28;20030;-80
2022/12/10 02:02:22;;;;;;;21.23;7.65;;;;;;;7.41;77.00;94302.78;4981194;28;20515;-79
2022/12/10 02:04:59;;;;;;;17.52;6.65;;;;;;;7.37;72.25;94293.13;4977928;28;20039;-79
2022/12/10 02:07:36;;;;;;;14.32;7.15;;;;;;;7.35;76.95;94296.28;4985948;28;20030;-79
2022/12/10 02:10:31;;;;;;;14.85;6.05;;;;;;;7.32;73.53;94294.41;4986077;28;20512;-79
2022/12/10 02:13:01;;;;;;;14.48;7.25;;;;;;;7.30;77.73;94291.34;4960589;28;20466;-80
2022/12/10 02:15:29;;;;;;;10.80;6.32;;;;;;;7.32;73.36;94291.69;4968290;28;20508;-80
2022/12/10 02:18:23;;;;;;;13.98;7.55;;;;;;;7.26;77.56;94279.72;4984494;28;20034;-80
2022/12/10 02:20:51;;;;;;;14.68;6.88;;;;;;;7.32;74.38;94282.72;4970954;28;20614;-79
2022/12/10 02:23:27;;;;;;;15.85;7.55;;;;;;;7.29;77.99;94276.16;4968604;28;20040;-79
2022/12/10 02:26:15;;;;;;;14.45;6.43;;;;;;;7.29;74.08;94289.81;4992506;28;20034;-79
2022/12/10 02:29:12;;;;;;;15.57;7.80;;;;;;;7.32;78.00;94275.28;5013097;28;20123;-81
2022/12/10 02:31:38;;;;;;;13.38;7.13;;;;;;;7.26;73.95;94268.03;4999739;28;20033;-78
2022/12/10 02:34:04;;;;;;;15.57;8.15;;;;;;;7.35;78.00;94274.41;4978618;28;20073;-81
2022/12/10 02:36:33;;;;;;;15.55;7.20;;;;;;;7.37;72.84;94257.56;5001917;28;20038;-80
2022/12/10 02:38:59;;;;;;;16.13;8.50;;;;;;;7.22;77.81;94262.66;4986244;28;20026;-80
2022/12/10 02:41:34;;;;;;;15.52;7.25;;;;;;;7.41;74.87;94267.22;4982851;28;20121;-79
2022/12/10 02:43:59;;;;;;;14.65;8.13;;;;;;;7.21;78.30;94261.13;4968499;28;20026;-79
2022/12/10 02:46:25;;;;;;;20.05;8.10;;;;;;;7.56;78.22;94264.84;4983729;28;20461;-79
2022/12/10 02:48:50;;;;;;;15.30;7.32;;;;;;;7.16;78.09;94265.13;4983122;28;20061;-78
2022/12/10 02:51:16;;;;;;;18.83;8.63;;;;;;;7.58;82.69;94267.16;4952131;28;20043;-79
2022/12/10 02:53:43;;;;;;;14.20;7.28;;;;;;;7.18;77.28;94262.75;4996816;28;20432;-80
2022/12/10 02:56:15;;;;;;;18.05;8.07;;;;;;;7.32;78.22;94263.56;4949475;28;20113;-79
2022/12/10 02:58:59;;;;;;;11.73;6.75;;;;;;;7.27;75.83;94264.09;4951405;28;20077;-79
2022/12/10 03:01:48;;;;;;;;;;;;;;;7.34;78.07;94261.94;4985252;28;20054;-79
2022/12/10 03:04:23;;;;;;;15.30;6.85;;;;;;;7.14;76.71;94261.31;4950558;28;19960;-79
2022/12/10 03:06:58;;;;;;;18.23;8.00;;;;;;;7.24;78.48;94259.50;4942534;28;20473;-80
2022/12/10 03:09:27;;;;;;;13.82;6.60;;;;;;;7.19;76.28;94263.53;5000156;28;20022;-79
2022/12/10 03:11:58;;;;;;;15.15;8.07;;;;;;;7.28;78.16;94260.16;4970610;28;20113;-78
2022/12/10 03:14:26;;;;;;;15.32;7.90;;;;;;;7.26;74.93;94255.13;4979973;28;20064;-79
2022/12/10 03:16:54;;;;;;;15.38;8.52;;;;;;;7.32;78.76;94252.63;4983214;28;20452;-77
2022/12/10 03:19:21;;;;;;;14.32;6.82;;;;;;;7.29;74.17;94234.38;5000557;28;20038;-80
2022/12/10 03:21:47;;;;;;;15.40;9.07;;;;;;;7.25;79.05;94244.63;4997944;28;20026;-79
2022/12/10 03:24:12;;;;;;;16.45;9.10;;;;;;;7.46;76.10;94235.84;4969090;28;20036;-79
2022/12/10 03:26:38;;;;;;;20.00;10.02;;;;;;;7.32;78.62;94242.47;4987480;28;20030;-79
2022/12/10 03:29:06;;;;;;;19.85;9.27;;;;;;;7.70;79.54;94228.91;4999860;28;20040;-80
2022/12/10 03:31:32;;;;;;;17.30;9.02;;;;;;;7.30;78.63;94238.63;4956073;28;20485;-80
2022/12/10 03:33:57;;;;;;;18.52;9.93;;;;;;;7.67;83.00;94248.13;5004657;28;20077;-80
2022/12/10 03:36:23;;;;;;;17.42;8.07;;;;;;;7.39;78.80;94246.97;5000940;28;20038;-80
2022/12/10 03:38:48;;;;;;;19.85;10.57;;;;;;;7.54;79.99;94247.34;4971824;28;20022;-80
2022/12/10 03:41:13;;;;;;;17.42;7.45;;;;;;;7.49;76.66;94234.19;4988488;28;20061;-80
2022/12/10 03:43:56;;;;;;;17.38;9.27;;;;;;;7.58;80.02;94242.56;4971906;28;20416;-80
2022/12/10 03:46:22;;;;;;;13.18;7.60;;;;;;;7.56;76.15;94229.28;4972633;28;20382;-79
2022/12/10 03:48:47;;;;;;;22.25;9.35;;;;;;;7.58;80.00;94226.13;4971666;28;20542;-79
2022/12/10 03:51:13;;;;;;;15.90;8.38;;;;;;;7.71;76.15;94222.22;4972235;28;20058;-79
2022/12/10 03:53:38;;;;;;;17.73;9.20;;;;;;;7.64;80.56;94219.69;4964868;28;20457;-78
2022/12/10 03:56:04;;;;;;;12.07;7.70;;;;;;;7.89;77.06;94231.88;5009138;28;20022;-78
2022/12/10 03:58:29;;;;;;;16.05;9.82;;;;;;;7.58;80.06;94237.09;4975250;28;20033;-79
2022/12/10 04:00:55;;;;;;;26.75;14.13;;;;;;;8.02;84.86;94237.34;4939105;28;20512;-78
2022/12/10 04:03:20;;;;;;;18.50;10.38;;;;;;;7.55;79.32;94240.66;4941198;28;20031;-78
2022/12/10 04:05:45;;;;;;;21.02;10.48;;;;;;;7.69;79.90;94235.56;4984959;28;20034;-80
2022/12/10 04:08:11;;;;;;;18.38;9.95;;;;;;;7.54;78.33;94248.09;4954719;28;20444;-80
2022/12/10 04:10:37;;;;;;;23.05;12.00;;;;;;;7.61;80.13;94238.94;4968908;28;20042;-79
2022/12/10 04:18:31;;;;;;;18.00;11.27;;;;;;;7.64;77.81;94227.13;4956276;28;20501;-79
2022/12/10 04:29:08;;;;;;;;;;;;;;;7.85;78.27;94234.69;4983267;28;20073;-79
2022/12/10 04:31:34;;;;;;;11.63;7.60;;;;;;;7.98;82.02;94246.44;4952229;28;19949;-80
2022/12/10 04:33:59;;;;;;;16.35;8.00;;;;;;;8.12;76.95;94244.47;4984707;28;20034;-80
2022/12/10 04:36:25;;;;;;;19.55;10.75;;;;;;;8.02;81.35;94227.16;4967590;28;20043;-79
2022/12/10 04:38:50;;;;;;;13.13;8.93;;;;;;;8.27;79.25;94233.88;4987781;28;20034;-80
2022/12/10 04:41:15;;;;;;;20.95;9.80;;;;;;;8.00;81.18;94226.84;4938432;28;20034;-79
2022/12/10 04:43:44;;;;;;;33.88;14.27;;;;;;;8.45;85.40;94234.09;4947910;28;20030;-79
2022/12/10 04:46:09;;;;;;;23.63;12.05;;;;;;;7.93;80.90;94247.00;4983550;28;20047;-80
2022/12/10 04:48:35;;;;;;;21.65;14.50;;;;;;;8.22;83.73;94232.44;4983716;28;20026;-79
2022/12/10 04:51:01;;;;;;;17.55;10.50;;;;;;;7.93;80.81;94236.03;4984949;28;20050;-80
2022/12/10 04:53:29;;;;;;;21.75;12.90;;;;;;;8.10;82.56;94238.69;4969324;28;20042;-80
2022/12/10 04:55:54;;;;;;;15.88;9.00;;;;;;;8.02;79.13;94240.09;4968447;28;20386;-80
2022/12/10 04:58:20;;;;;;;29.10;17.88;;;;;;;8.12;82.78;94247.97;4986339;28;20022;-77
2022/12/10 05:00:45;;;;;;;29.45;16.00;;;;;;;8.13;78.08;94241.28;4987913;28;20865;-79
2022/12/10 05:03:10;;;;;;;30.83;16.95;;;;;;;8.01;81.96;94238.56;4986781;28;20461;-78
2022/12/10 05:05:36;;;;;;;23.23;13.60;;;;;;;8.28;79.53;94247.13;4987772;28;20456;-78
2022/12/10 05:08:01;;;;;;;29.55;16.73;;;;;;;7.89;82.03;94238.09;5007401;28;20408;-79
2022/12/10 05:10:27;;;;;;;32.90;16.42;;;;;;;8.38;86.41;94235.09;4989131;28;20065;-79
2022/12/10 05:12:52;;;;;;;26.85;12.38;;;;;;;7.84;81.14;94235.13;4972155;28;20056;-79
2022/12/10 05:15:18;;;;;;;23.45;12.15;;;;;;;8.23;84.39;94229.25;4984618;28;20038;-78
2022/12/10 05:17:43;;;;;;;20.77;10.85;;;;;;;7.94;81.05;94229.34;4970921;28;20026;-79
2022/12/10 05:20:09;;;;;;;29.20;15.80;;;;;;;8.08;82.91;94228.16;4984392;28;20034;-78
2022/12/10 05:25:26;;;;;;;22.85;11.40;;;;;;;8.06;82.76;94233.31;4927537;28;20424;-79
2022/12/10 05:27:52;;;;;;;20.80;11.65;;;;;;;8.05;79.03;94231.00;4984472;28;20476;-80
2022/12/10 05:30:17;;;;;;;22.05;13.57;;;;;;;7.99;81.90;94231.56;4982568;28;20054;-79
2022/12/10 05:32:42;;;;;;;23.08;11.63;;;;;;;8.06;78.60;94233.31;4962981;28;20037;-79
2022/12/10 05:35:08;;;;;;;28.60;13.68;;;;;;;7.91;82.05;94235.72;4969001;28;20045;-79
2022/12/10 05:37:33;;;;;;;22.60;12.95;;;;;;;8.12;80.29;94228.06;4985965;28;20030;-79
2022/12/10 05:39:59;;;;;;;28.08;15.13;;;;;;;7.82;82.15;94229.34;4984391;28;20041;-79
2022/12/10 05:42:24;;;;;;;40.45;19.35;;;;;;;8.39;86.71;94246.81;4949927;28;20026;-79
2022/12/10 05:44:50;;;;;;;21.90;12.90;;;;;;;7.87;81.63;94254.19;4986172;28;20450;-80
2022/12/10 05:47:15;;;;;;;27.55;14.10;;;;;;;8.02;83.24;94246.31;4984903;28;20034;-79
2022/12/10 05:49:41;;;;;;;14.73;10.27;;;;;;;7.88;80.50;94241.28;5001391;28;20116;-78
2022/12/10 05:52:08;;;;;;;28.15;15.18;;;;;;;7.99;82.66;94247.22;4981995;28;20042;-79
2022/12/10 05:54:34;;;;;;;19.88;10.88;;;;;;;7.94;79.48;94228.59;4986473;28;20581;-80
2022/12/10 05:56:59;;;;;;;22.58;13.10;;;;;;;7.97;82.35;94244.13;4993901;28;20037;-80
2022/12/10 05:59:25;;;;;;;20.88;11.18;;;;;;;8.06;78.82;94251.69;4992001;28;20026;-80
2022/12/10 06:01:50;;;;;;;19.77;11.82;;;;;;;8.04;82.91;94254.88;5001649;28;20031;-80
2022/12/10 06:04:16;;;;;;;18.75;10.30;;;;;;;8.24;81.43;94258.16;4973355;28;20026;-80
2022/12/10 06:06:41;;;;;;;23.02;11.73;;;;;;;8.02;81.92;94257.28;4968168;28;20026;-78
2022/12/10 06:09:09;;;;;;;25.27;13.73;;;;;;;8.49;86.04;94253.94;4937455;28;20556;-78
2022/12/10 06:11:34;;;;;;;16.77;9.80;;;;;;;8.02;81.49;94264.72;4968768;28;20094;-78
2022/12/10 06:14:01;;;;;;;22.63;11.80;;;;;;;8.33;84.55;94260.25;4953791;28;20026;-78
2022/12/10 06:16:27;;;;;;;15.23;8.52;;;;;;;8.09;80.72;94254.34;4984967;28;20058;-80
2022/12/10 06:18:52;;;;;;;27.00;11.23;;;;;;;8.27;82.62;94256.53;4969495;28;20470;-80
2022/12/10 06:21:18;;;;;;;14.27;9.00;;;;;;;8.19;78.48;94250.50;4952967;28;20522;-79
2022/12/10 06:23:44;;;;;;;20.65;10.75;;;;;;;8.21;81.63;94255.56;4985745;28;20022;-79
2022/12/10 06:26:20;;;;;;;14.95;8.38;;;;;;;8.29;77.28;94247.88;4986267;28;20033;-78
2022/12/10 06:28:46;;;;;;;26.05;13.00;;;;;;;8.28;82.73;94229.91;4970377;28;20037;-79
2022/12/10 06:31:12;;;;;;;19.23;10.25;;;;;;;8.36;78.51;94233.97;4953202;28;20587;-80
2022/12/10 06:33:37;;;;;;;23.10;13.60;;;;;;;8.11;81.87;94227.28;4968819;28;20026;-80
2022/12/10 06:36:07;;;;;;;23.55;13.98;;;;;;;8.48;81.88;94224.97;4986987;28;20560;-81
2022/12/10 06:38:33;;;;;;;23.92;12.45;;;;;;;8.18;81.60;94218.09;4952619;28;20030;-79
2022/12/10 06:40:58;;;;;;;30.33;17.00;;;;;;;8.60;85.92;94235.19;4953072;28;20035;-81
2022/12/10 06:43:24;;;;;;;23.60;11.18;;;;;;;8.22;80.87;94237.91;4985764;28;20037;-80
2022/12/10 06:45:49;;;;;;;23.45;13.75;;;;;;;8.36;82.60;94242.19;5001075;28;20030;-80
2022/12/10 06:48:15;;;;;;;18.20;11.10;;;;;;;8.27;79.74;94248.31;4966812;28;20034;-82
2022/12/10 06:50:41;;;;;;;20.55;12.85;;;;;;;8.36;82.17;94255.91;4982297;28;20042;-77
2022/12/10 06:53:06;;;;;;;21.25;12.38;;;;;;;8.37;78.45;94262.91;4978056;28;20396;-76
2022/12/10 06:55:31;;;;;;;26.55;17.08;;;;;;;8.41;82.74;94277.25;4986624;28;20035;-77
2022/12/10 06:57:57;;;;;;;19.05;12.35;;;;;;;8.56;78.89;94267.41;4951446;28;20034;-77
2022/12/10 07:00:23;;;;;;;23.42;11.95;;;;;;;8.41;82.00;94260.81;4969799;28;20041;-79
2022/12/10 07:02:48;;;;;;;17.90;11.27;;;;;;;8.73;80.75;94260.59;5000066;28;20774;-79
2022/12/10 07:05:13;;;;;;;22.58;15.02;;;;;;;8.47;82.23;94265.31;4982639;28;20034;-78
2022/12/10 07:07:39;;;;;;;57.65;23.65;;;;;;;9.00;86.27;94262.03;4988691;28;20023;-78
2022/12/10 07:10:05;;;;;;;17.30;12.48;;;;;;;8.46;80.78;94255.56;4991083;28;20022;-78
2022/12/10 07:12:30;;;;;;;24.50;15.75;;;;;;;8.63;82.37;94263.66;4987319;28;20026;-79
2022/12/10 07:14:56;;;;;;;21.83;12.65;;;;;;;8.49;79.38;94267.63;4988651;28;20038;-78
2022/12/10 07:17:21;;;;;;;19.13;12.77;;;;;;;8.70;82.09;94266.94;4989034;28;20253;-78
2022/12/10 07:19:47;;;;;;;14.82;10.23;;;;;;;8.56;77.21;94250.97;5004893;28;20030;-81
2022/12/10 07:22:12;;;;;;;17.40;9.95;;;;;;;8.57;81.67;94249.00;4989137;28;20063;-78
2022/12/10 07:24:38;;;;;;;19.33;9.57;;;;;;;8.68;77.30;94241.19;5004432;28;20035;-78
2022/12/10 07:27:06;;;;;;;15.07;11.07;;;;;;;8.50;81.37;94233.56;5005633;28;20049;-79
2022/12/10 07:29:32;;;;;;;14.13;8.48;;;;;;;8.76;77.69;94237.00;4972865;28;20030;-78
2022/12/10 07:31:57;;;;;;;17.33;10.50;;;;;;;8.41;81.02;94228.72;4989045;28;20018;-79
2022/12/10 07:34:23;;;;;;;39.15;16.83;;;;;;;8.89;85.98;94239.72;4989880;28;20041;-79
2022/12/10 07:36:48;;;;;;;14.32;9.93;;;;;;;8.41;80.48;94244.41;4988590;28;20022;-77
2022/12/10 07:39:17;;;;;;;19.45;10.63;;;;;;;8.69;81.74;94240.75;4989564;28;20399;-79
2022/12/10 07:41:55;;;;;;;12.52;7.60;;;;;;;8.45;79.34;94231.34;5004699;28;20038;-79
2022/12/10 07:44:24;;;;;;;20.63;9.98;;;;;;;8.60;81.17;94235.19;4972764;28;20034;-79
2022/12/10 07:46:50;;;;;;;15.45;8.43;;;;;;;8.46;77.52;94230.91;4971974;28;20077;-79
2022/12/10 07:49:16;;;;;;;13.93;8.57;;;;;;;8.56;80.79;94233.75;4972544;28;20030;-79
2022/12/10 07:51:48;;;;;;;12.63;7.70;;;;;;;8.58;76.29;94226.63;4971178;28;20042;-78
2022/12/10 07:54:14;;;;;;;17.20;9.70;;;;;;;8.63;81.06;94237.03;5004371;28;20037;-79
2022/12/10 07:56:40;;;;;;;15.40;8.07;;;;;;;8.78;76.05;94229.13;4971771;28;20050;-79
2022/12/10 07:59:05;;;;;;;16.52;9.80;;;;;;;8.61;80.36;94217.53;5004079;28;20034;-79
2022/12/10 08:01:30;;;;;;;12.50;9.13;;;;;;;9.03;78.10;94228.28;4988476;28;20068;-79
2022/12/10 08:03:56;;;;;;;16.52;9.70;;;;;;;8.66;80.51;94216.19;4987102;28;20026;-79
2022/12/10 08:06:22;;;;;;;33.97;15.75;;;;;;;9.18;85.16;94207.38;4988336;28;20054;-79
2022/12/10 08:08:48;;;;;;;17.67;10.02;;;;;;;8.72;79.75;94219.94;4971426;28;20652;-78
2022/12/10 08:11:14;;;;;;;21.10;11.85;;;;;;;8.93;80.68;94215.69;4971460;28;20485;-79
2022/12/10 08:13:40;;;;;;;16.65;9.75;;;;;;;8.78;78.26;94218.16;4971083;28;20076;-79
2022/12/10 08:16:07;;;;;;;22.92;12.23;;;;;;;9.02;80.28;94196.59;4987578;28;20027;-81
2022/12/10 08:18:33;;;;;;;15.43;9.82;;;;;;;8.91;76.72;94199.69;5004462;28;20030;-78
2022/12/10 08:20:58;;;;;;;21.58;12.48;;;;;;;8.98;81.06;94206.91;5003490;28;20114;-79
2022/12/10 08:23:24;;;;;;;18.17;9.77;;;;;;;9.11;75.81;94204.09;5004440;28;20465;-79
2022/12/10 08:25:49;;;;;;;15.65;10.43;;;;;;;8.97;80.54;94208.13;5003205;28;20034;-79
2022/12/10 08:28:15;;;;;;;19.17;9.77;;;;;;;9.24;77.56;94202.88;4987703;28;20026;-80
2022/12/10 08:30:45;;;;;;;19.75;12.07;;;;;;;8.98;80.16;94201.41;5003444;28;20026;-80
2022/12/10 08:33:11;;;;;;;24.38;14.25;;;;;;;9.49;84.68;94206.69;4989013;28;20030;-79
2022/12/10 08:35:36;;;;;;;15.77;9.75;;;;;;;9.04;79.32;94200.41;4989483;28;20496;-79
2022/12/10 08:38:01;;;;;;;17.70;11.48;;;;;;;9.30;80.12;94203.06;4987455;28;20390;-77
2022/12/10 08:40:27;;;;;;;17.80;11.10;;;;;;;9.24;77.62;94202.88;5004473;28;20527;-78
2022/12/10 08:42:52;;;;;;;18.10;12.32;;;;;;;9.56;79.72;94192.69;4988165;28;20026;-78
2022/12/10 08:45:18;;;;;;;21.02;10.63;;;;;;;9.55;74.24;94211.16;5003936;28;20093;-78
2022/12/10 08:47:43;;;;;;;22.75;15.18;;;;;;;9.76;78.86;94190.41;4986763;28;20033;-79
2022/12/10 08:50:09;;;;;;;22.25;14.27;;;;;;;10.03;73.93;94208.97;5002766;28;20026;-80
2022/12/10 08:52:34;;;;;;;27.08;16.05;;;;;;;9.98;77.60;94179.38;4951293;28;20054;-79
2022/12/10 08:55:00;;;;;;;21.92;13.93;;;;;;;10.45;74.30;94191.31;4968775;28;20045;-78
2022/12/10 08:57:25;;;;;;;28.83;19.13;;;;;;;10.14;77.64;94188.56;4951853;28;20035;-81
2022/12/10 08:59:50;;;;;;;27.15;17.67;;;;;;;11.48;78.27;94170.44;4951412;28;20050;-77
2022/12/10 09:02:16;;;;;;;20.38;13.27;;;;;;;11.64;73.13;94183.09;4951650;28;20022;-77
2022/12/10 09:04:42;;;;;;;23.73;13.30;;;;;;;12.71;70.52;94165.09;4966897;28;20053;-79
2022/12/10 09:07:07;;;;;;;22.20;12.85;;;;;;;13.47;67.43;94160.09;4968877;28;20037;-79
2022/12/10 09:09:33;;;;;;;14.70;8.60;;;;;;;13.49;64.93;94167.91;4983205;28;20027;-79
2022/12/10 09:11:58;;;;;;;13.52;8.77;;;;;;;13.77;65.55;94166.41;4983444;28;20477;-78
2022/12/10 09:14:24;;;;;;;14.90;8.00;;;;;;;14.17;64.42;94167.06;4950859;28;20512;-78
2022/12/10 09:16:49;;;;;;;15.55;8.65;;;;;;;15.05;62.12;94177.13;4968385;28;20041;-78
2022/12/10 09:19:15;;;;;;;15.10;7.03;;;;;;;14.32;64.54;94179.59;4967360;28;20109;-77
2022/12/10 09:21:40;;;;;;;14.25;8.10;;;;;;;14.56;62.17;94167.66;4950374;28;20110;-78
2022/12/10 09:24:06;;;;;;;12.88;7.40;;;;;;;15.22;60.66;94163.50;4983255;28;20019;-77
2022/12/10 09:26:31;;;;;;;10.55;6.60;;;;;;;15.33;56.47;94156.06;4982861;28;20130;-79
2022/12/10 09:28:57;;;;;;;10.98;7.38;;;;;;;15.71;59.10;94140.34;4983431;28;20054;-80
2022/12/10 09:31:23;;;;;;;16.27;7.90;;;;;;;17.60;53.19;94141.25;4950104;28;20034;-80
2022/12/10 09:33:49;;;;;;;10.70;6.55;;;;;;;18.10;52.12;94144.13;4951090;28;20035;-79
2022/12/10 09:36:15;;;;;;;11.98;7.47;;;;;;;17.14;56.31;94131.25;4966780;28;20022;-77
2022/12/10 09:38:41;;;;;;;14.75;7.55;;;;;;;17.76;52.23;94127.41;4950277;28;20039;-81
2022/12/10 09:41:10;;;;;;;15.80;8.63;;;;;;;18.20;54.40;94131.47;4969165;28;20218;-80
2022/12/10 09:43:35;;;;;;;11.85;7.30;;;;;;;17.03;56.84;94120.84;4967092;28;20031;-80
2022/12/10 09:46:19;;;;;;;10.73;6.60;;;;;;;17.39;52.82;94124.78;4968471;28;20030;-79
2022/12/10 09:49:05;;;;;;;11.52;7.53;;;;;;;18.03;54.42;94128.69;4967672;28;20042;-80
2022/12/10 09:51:35;;;;;;;11.13;5.95;;;;;;;17.12;56.26;94106.00;4979603;28;20054;-78
2022/12/10 09:54:02;;;;;;;9.95;6.30;;;;;;;17.86;52.30;94119.59;4986876;28;20026;-81
2022/12/10 09:56:34;;;;;;;11.00;6.55;;;;;;;18.75;49.53;94110.44;4953289;28;20099;-78
2022/12/10 09:59:03;;;;;;;12.95;8.00;;;;;;;18.37;50.67;94100.88;4970146;28;20030;-82
2022/12/10 10:01:29;;;;;;;15.55;7.93;;;;;;;18.78;50.90;94112.19;4968837;28;20033;-79
2022/12/10 10:03:55;;;;;;;9.63;6.30;;;;;;;18.95;49.01;94100.25;4969879;28;20026;-80
2022/12/10 10:06:21;;;;;;;6.97;5.63;;;;;;;19.64;47.21;94111.34;4985187;28;20022;-80
2022/12/10 10:08:54;;;;;;;8.98;6.82;;;;;;;19.00;50.30;94102.25;4969547;28;20034;-77
2022/12/10 10:11:22;;;;;;;8.90;6.18;;;;;;;19.12;48.60;94102.97;4962675;28;20445;-78
2022/12/10 10:13:51;;;;;;;9.25;6.00;;;;;;;19.74;47.25;94095.81;4997890;28;20043;-78
2022/12/10 10:16:23;;;;;;;12.40;6.82;;;;;;;19.61;48.34;94101.22;4985757;28;20061;-77
2022/12/10 10:18:59;;;;;;;9.60;6.95;;;;;;;17.98;52.90;94084.22;4986488;28;20026;-77
2022/12/10 10:21:42;;;;;;;10.52;6.40;;;;;;;18.50;49.20;94081.63;4969237;28;20034;-79
2022/12/10 10:24:15;;;;;;;14.45;7.07;;;;;;;18.66;48.87;94076.53;4971171;28;20472;-79
2022/12/10 10:26:40;;;;;;;9.65;5.63;;;;;;;17.78;49.89;94069.31;4987482;28;20031;-78
2022/12/10 10:29:08;;;;;;;11.45;6.68;;;;;;;17.13;54.01;94060.31;4986656;28;20038;-79
2022/12/10 10:31:35;;;;;;;11.38;6.82;;;;;;;17.25;52.84;94054.28;4985066;28;20026;-79
2022/12/10 10:34:04;;;;;;;13.00;7.03;;;;;;;17.62;54.65;94044.25;4952896;28;20066;-77
2022/12/10 10:36:35;;;;;;;12.80;7.13;;;;;;;16.25;58.28;94040.75;4969208;28;20027;-80
2022/12/10 10:39:09;;;;;;;8.35;6.80;;;;;;;16.60;54.47;94040.41;4968909;28;20121;-79
2022/12/10 10:41:39;;;;;;;11.70;6.97;;;;;;;16.93;54.33;94036.28;4986683;28;20027;-78
2022/12/10 10:44:04;;;;;;;13.55;6.55;;;;;;;16.08;57.25;94042.66;4953390;28;20030;-78
2022/12/10 10:46:30;;;;;;;10.50;6.32;;;;;;;16.14;56.01;94046.22;4969194;28;20049;-77
2022/12/10 10:49:13;;;;;;;12.70;6.30;;;;;;;16.46;55.45;94044.91;4986342;28;20413;-77
2022/12/10 10:51:42;;;;;;;10.82;6.45;;;;;;;16.82;56.76;94036.25;4968943;28;20501;-80
2022/12/10 10:54:07;;;;;;;10.93;7.90;;;;;;;15.67;59.26;94040.09;4985255;28;20046;-78
2022/12/10 10:56:42;;;;;;;11.80;7.93;;;;;;;16.01;56.44;94043.88;5001239;28;20085;-78
2022/12/10 10:59:13;;;;;;;9.43;6.63;;;;;;;16.68;54.35;94043.47;4969667;28;20532;-79
2022/12/10 11:01:55;;;;;;;8.65;6.18;;;;;;;16.46;55.15;94038.59;4984463;28;20037;-80
2022/12/10 11:04:32;;;;;;;10.52;6.35;;;;;;;16.37;56.06;94034.00;4952843;28;20508;-80
2022/12/10 11:07:00;;;;;;;11.65;6.10;;;;;;;16.58;54.91;94020.00;4986311;28;20414;-81
2022/12/10 11:09:28;;;;;;;14.70;8.32;;;;;;;16.82;54.07;94022.38;4968818;28;20041;-79
2022/12/10 11:12:00;;;;;;;17.85;9.07;;;;;;;16.41;52.97;94014.38;4969335;28;20037;-81
2022/12/10 11:14:30;;;;;;;14.87;8.70;;;;;;;16.03;57.66;94010.88;4968234;28;20026;-78
2022/12/10 11:17:16;;;;;;;11.88;6.65;;;;;;;16.29;55.46;93998.94;4969993;28;20088;-80
2022/12/10 11:20:04;;;;;;;15.18;9.35;;;;;;;16.67;54.63;93984.44;4981563;28;20121;-78
2022/12/10 11:22:33;;;;;;;11.38;6.28;;;;;;;15.61;59.43;93983.84;4961598;28;20034;-78
2022/12/10 11:24:59;;;;;;;11.77;6.75;;;;;;;15.80;57.40;93981.50;4969146;28;20078;-79
2022/12/10 11:27:49;;;;;;;13.02;7.00;;;;;;;16.24;55.72;93974.69;4984280;28;20026;-78
2022/12/10 11:30:22;;;;;;;10.43;6.22;;;;;;;16.25;52.57;93965.13;4968934;28;20097;-77
2022/12/10 11:32:52;;;;;;;10.35;6.38;;;;;;;15.70;58.46;93966.31;4968293;28;20466;-83
2022/12/10 11:35:31;;;;;;;12.80;6.05;;;;;;;16.27;57.52;93960.59;4985139;28;20596;-74
2022/12/10 11:38:34;;;;;;;10.98;6.30;;;;;;;17.31;51.48;93964.66;4970083;28;20089;-77
2022/12/10 11:41:24;;;;;;;11.25;5.18;;;;;;;17.85;51.39;93967.97;4985432;28;20062;-78
2022/12/10 11:43:52;;;;;;;11.45;5.88;;;;;;;18.42;50.11;93960.97;4970791;28;20038;-77
2022/12/10 11:46:39;;;;;;;10.65;5.47;;;;;;;18.75;48.95;93968.47;4988180;28;20105;-77
2022/12/10 11:49:13;;;;;;;12.80;6.03;;;;;;;18.88;48.62;93970.69;4989331;28;20216;-77
2022/12/10 11:51:42;;;;;;;18.17;7.88;;;;;;;19.28;46.44;93966.38;4959401;28;20065;-75